OFI weather

Ouango Fitini Airport
Ouango Fitini, Zanzan, Côte d'Ivoire

Public forecast

Using degrees Celsius for public forecast. Weather courtesy of forecast.io.

METAR (pilot weather report)

Report is more than 6 hours old.

Closest report is Gaoua Airport, 70.5 nm (130.5 km) NE. Retrieved 2009/09/21 17:00 UTC (10 years ago):

DFOG 211700Z 18004KT 9999 FEW020 FEW040CB NW NE BKN260 30/23

TAF (pilot weather forecast)

Forecast is more than 12 hours old.

Closest forecast is Bobo Dioulasso Airport, 95.1 nm (176.2 km) N. Retrieved 2019/03/21 00:51 UTC (2 days ago):

TAF COR DFOO 212300Z 2200/2224 VRB08KT CAVOK PROB30 TEMPO 2215/2224 TS FEW020 FEW036CB